RYL26 FQMA-FQLC
Flight info
| Callsign | RYL26 |
|---|---|
| Flight time | N/A |
| Altitude | 17000 |
| Route | UVGAN1A AXIVO UM310 OKBIM DCT VLC |
| Aircraft | C208/L-SDFGR/C |
Departure
| Time | 2026-04-23 23:37 |
|---|---|
| Airport | Maputo Airport (FQMA) |
Arrival
| Time | N/A |
|---|---|
| Airport | Lichinga Airport (FQLC) |
| Time | Latitude | Longitude | Altitude | Speed | Heading |
|---|---|---|---|---|---|
| 2026-04-23 23:30 | -25.92535 | 32.57310 | 137 ft | 0 kts | 8° |
| 2026-04-23 23:34 | -25.92531 | 32.57310 | 137 ft | 2 kts | 4° |
| 2026-04-23 23:35 | -25.92501 | 32.57266 | 136 ft | 8 kts | 284° |
| 2026-04-23 23:35 | -25.92499 | 32.57246 | 135 ft | 0 kts | 272° |
| 2026-04-23 23:35 | -25.92499 | 32.57243 | 135 ft | 1 kts | 270° |
| 2026-04-23 23:36 | -25.92509 | 32.57206 | 134 ft | 9 kts | 230° |
| 2026-04-23 23:36 | -25.92508 | 32.57117 | 133 ft | 14 kts | 299° |
| 2026-04-23 23:36 | -25.92459 | 32.57038 | 131 ft | 8 kts | 349° |
| 2026-04-23 23:36 | -25.92395 | 32.57067 | 131 ft | 16 kts | 29° |
| 2026-04-23 23:37 | -25.92126 | 32.57232 | 131 ft | 77 kts | 29° |
| 2026-04-23 23:37 | -25.91511 | 32.57614 | 157 ft | 120 kts | 28° |
| 2026-04-23 23:37 | -25.90744 | 32.58083 | 406 ft | 131 kts | 31° |
| 2026-04-23 23:37 | -25.89959 | 32.58609 | 777 ft | 134 kts | 31° |
| 2026-04-23 23:38 | -25.89166 | 32.59142 | 1152 ft | 136 kts | 31° |
| 2026-04-23 23:38 | -25.88350 | 32.59685 | 1529 ft | 137 kts | 31° |
| 2026-04-23 23:38 | -25.87536 | 32.60220 | 1899 ft | 135 kts | 31° |
| 2026-04-23 23:38 | -25.86768 | 32.60720 | 2253 ft | 122 kts | 31° |
| 2026-04-23 23:39 | -25.86088 | 32.61155 | 2597 ft | 105 kts | 31° |
| 2026-04-23 23:39 | -25.85506 | 32.61516 | 2914 ft | 88 kts | 31° |
| 2026-04-23 23:39 | -25.84903 | 32.61803 | 2988 ft | 100 kts | 28° |
| 2026-04-23 23:39 | -25.84257 | 32.62187 | 3087 ft | 109 kts | 31° |
| 2026-04-23 23:40 | -25.83582 | 32.62605 | 3219 ft | 114 kts | 31° |
| 2026-04-23 23:40 | -25.82866 | 32.63050 | 3352 ft | 119 kts | 31° |
| 2026-04-23 23:40 | -25.82134 | 32.63506 | 3481 ft | 123 kts | 31° |
| 2026-04-23 23:40 | -25.81382 | 32.63975 | 3609 ft | 127 kts | 31° |
| 2026-04-23 23:41 | -25.80578 | 32.64436 | 3736 ft | 131 kts | 17° |
| 2026-04-23 23:41 | -25.79682 | 32.64648 | 3867 ft | 133 kts | 14° |
| 2026-04-23 23:41 | -25.78780 | 32.64912 | 3994 ft | 135 kts | 17° |
| 2026-04-23 23:41 | -25.77881 | 32.65216 | 4119 ft | 137 kts | 19° |
| 2026-04-23 23:42 | -25.76976 | 32.65533 | 4243 ft | 138 kts | 19° |
| 2026-04-23 23:42 | -25.76054 | 32.65856 | 4369 ft | 139 kts | 19° |
| 2026-04-23 23:42 | -25.75124 | 32.66182 | 4495 ft | 140 kts | 19° |
| 2026-04-23 23:42 | -25.74195 | 32.66508 | 4620 ft | 141 kts | 19° |
| 2026-04-23 23:43 | -25.73269 | 32.66832 | 4743 ft | 141 kts | 19° |
| 2026-04-23 23:43 | -25.72329 | 32.67161 | 4868 ft | 141 kts | 19° |
| 2026-04-23 23:43 | -25.71392 | 32.67489 | 4993 ft | 141 kts | 19° |
| 2026-04-23 23:43 | -25.70444 | 32.67820 | 5119 ft | 141 kts | 19° |
| 2026-04-23 23:44 | -25.69501 | 32.68151 | 5243 ft | 141 kts | 19° |
| 2026-04-23 23:44 | -25.68564 | 32.68479 | 5321 ft | 144 kts | 19° |
| 2026-04-23 23:44 | -25.67596 | 32.68818 | 5398 ft | 147 kts | 19° |
| 2026-04-23 23:44 | -25.66614 | 32.69161 | 5475 ft | 148 kts | 19° |
| 2026-04-23 23:45 | -25.65618 | 32.69510 | 5552 ft | 150 kts | 19° |
| 2026-04-23 23:45 | -25.64620 | 32.69859 | 5627 ft | 151 kts | 19° |
| 2026-04-23 23:45 | -25.63627 | 32.70206 | 5702 ft | 151 kts | 19° |
| 2026-04-23 23:45 | -25.62619 | 32.70558 | 5777 ft | 152 kts | 19° |
| 2026-04-23 23:46 | -25.61606 | 32.70912 | 5853 ft | 152 kts | 19° |
| 2026-04-23 23:46 | -25.60598 | 32.71264 | 5928 ft | 152 kts | 19° |
| 2026-04-23 23:46 | -25.59588 | 32.71617 | 6003 ft | 152 kts | 19° |
| 2026-04-23 23:46 | -25.58568 | 32.71973 | 6078 ft | 152 kts | 20° |
| 2026-04-23 23:47 | -25.57555 | 32.72327 | 6153 ft | 152 kts | 20° |
| 2026-04-23 23:47 | -25.56546 | 32.72679 | 6228 ft | 152 kts | 20° |
| 2026-04-23 23:47 | -25.55544 | 32.73029 | 6303 ft | 152 kts | 20° |
| 2026-04-23 23:47 | -25.54538 | 32.73380 | 6377 ft | 152 kts | 20° |
| 2026-04-23 23:48 | -25.53525 | 32.73733 | 6453 ft | 152 kts | 20° |
| 2026-04-23 23:48 | -25.52517 | 32.74085 | 6528 ft | 151 kts | 20° |
| 2026-04-23 23:48 | -25.51523 | 32.74431 | 6602 ft | 151 kts | 20° |
| 2026-04-23 23:48 | -25.50521 | 32.74781 | 6677 ft | 151 kts | 20° |
| 2026-04-23 23:49 | -25.48512 | 32.75481 | 6828 ft | 151 kts | 20° |
| 2026-04-23 23:49 | -25.47523 | 32.75825 | 6902 ft | 150 kts | 20° |
| 2026-04-23 23:49 | -25.46518 | 32.76176 | 6978 ft | 150 kts | 20° |
| 2026-04-23 23:50 | -25.45531 | 32.76520 | 7053 ft | 150 kts | 20° |
| 2026-04-23 23:50 | -25.44536 | 32.76866 | 7128 ft | 150 kts | 20° |
| 2026-04-23 23:50 | -25.43535 | 32.77215 | 7204 ft | 149 kts | 20° |
| 2026-04-23 23:50 | -25.42551 | 32.77557 | 7279 ft | 149 kts | 20° |
| 2026-04-23 23:51 | -25.41557 | 32.77903 | 7354 ft | 149 kts | 20° |
| 2026-04-23 23:51 | -25.40579 | 32.78244 | 7429 ft | 149 kts | 20° |
| 2026-04-23 23:51 | -25.39598 | 32.78585 | 7504 ft | 148 kts | 20° |
| 2026-04-23 23:51 | -25.38609 | 32.78929 | 7580 ft | 148 kts | 20° |
| 2026-04-23 23:52 | -25.37633 | 32.79269 | 7655 ft | 148 kts | 20° |
| 2026-04-23 23:52 | -25.36651 | 32.79610 | 7730 ft | 148 kts | 20° |
| 2026-04-23 23:52 | -25.35668 | 32.79952 | 7806 ft | 147 kts | 20° |
| 2026-04-23 23:52 | -25.34699 | 32.80289 | 7881 ft | 147 kts | 20° |
| 2026-04-23 23:53 | -25.33718 | 32.80630 | 7956 ft | 147 kts | 20° |
| 2026-04-23 23:53 | -25.32745 | 32.80969 | 8032 ft | 146 kts | 20° |
| 2026-04-23 23:53 | -25.31769 | 32.81308 | 8108 ft | 146 kts | 20° |
| 2026-04-23 23:53 | -25.30802 | 32.81644 | 8183 ft | 146 kts | 20° |
| 2026-04-23 23:54 | -25.29838 | 32.81979 | 8258 ft | 146 kts | 20° |
| 2026-04-23 23:54 | -25.28867 | 32.82316 | 8334 ft | 145 kts | 20° |
| 2026-04-23 23:54 | -25.27911 | 32.82648 | 8409 ft | 145 kts | 20° |
| 2026-04-23 23:54 | -25.26954 | 32.82980 | 8484 ft | 145 kts | 20° |
| 2026-04-23 23:55 | -25.25991 | 32.83315 | 8560 ft | 145 kts | 20° |
| 2026-04-23 23:55 | -25.25028 | 32.83649 | 8636 ft | 144 kts | 20° |
| 2026-04-23 23:55 | -25.24075 | 32.83979 | 8711 ft | 144 kts | 20° |
| 2026-04-23 23:55 | -25.23127 | 32.84309 | 8786 ft | 144 kts | 20° |
| 2026-04-23 23:56 | -25.22170 | 32.84640 | 8862 ft | 143 kts | 20° |
| 2026-04-23 23:56 | -25.21212 | 32.84973 | 8938 ft | 143 kts | 20° |
| 2026-04-23 23:56 | -25.20274 | 32.85298 | 9012 ft | 143 kts | 20° |
| 2026-04-23 23:56 | -25.19319 | 32.85629 | 9088 ft | 143 kts | 20° |
| 2026-04-23 23:57 | -25.18382 | 32.85954 | 9163 ft | 142 kts | 20° |
| 2026-04-23 23:57 | -25.17433 | 32.86283 | 9239 ft | 142 kts | 20° |
| 2026-04-23 23:57 | -25.16492 | 32.86610 | 9315 ft | 142 kts | 20° |
| 2026-04-23 23:57 | -25.15560 | 32.86932 | 9389 ft | 141 kts | 20° |
| 2026-04-23 23:58 | -25.14625 | 32.87257 | 9465 ft | 141 kts | 20° |
| 2026-04-23 23:58 | -25.13691 | 32.87580 | 9540 ft | 140 kts | 20° |
| 2026-04-23 23:58 | -25.12761 | 32.87902 | 9615 ft | 140 kts | 20° |
| 2026-04-23 23:58 | -25.11834 | 32.88223 | 9690 ft | 139 kts | 20° |
| 2026-04-23 23:59 | -25.10906 | 32.88544 | 9766 ft | 139 kts | 20° |
| 2026-04-23 23:59 | -25.09987 | 32.88862 | 9841 ft | 138 kts | 21° |
| 2026-04-23 23:59 | -25.09077 | 32.89177 | 9916 ft | 138 kts | 21° |
| 2026-04-23 23:59 | -25.08160 | 32.89494 | 9991 ft | 138 kts | 21° |
| 2026-04-24 00:00 | -25.07248 | 32.89810 | 10067 ft | 137 kts | 21° |
| 2026-04-24 00:00 | -25.06332 | 32.90126 | 10143 ft | 137 kts | 21° |
| 2026-04-24 00:00 | -25.05420 | 32.90442 | 10219 ft | 137 kts | 22° |
| 2026-04-24 00:00 | -25.04520 | 32.90754 | 10294 ft | 137 kts | 22° |
| 2026-04-24 00:01 | -25.03607 | 32.91069 | 10370 ft | 137 kts | 22° |
| 2026-04-24 00:01 | -25.02694 | 32.91385 | 10446 ft | 137 kts | 22° |
| 2026-04-24 00:01 | -25.01794 | 32.91696 | 10522 ft | 137 kts | 22° |
| 2026-04-24 00:01 | -25.00884 | 32.92011 | 10599 ft | 137 kts | 23° |
| 2026-04-24 00:02 | -24.99975 | 32.92325 | 10675 ft | 137 kts | 23° |
| 2026-04-24 00:02 | -24.99076 | 32.92636 | 10751 ft | 137 kts | 23° |
| 2026-04-24 00:02 | -24.98164 | 32.92951 | 10829 ft | 137 kts | 23° |
| 2026-04-24 00:02 | -24.97250 | 32.93267 | 10906 ft | 137 kts | 24° |
| 2026-04-24 00:03 | -24.96348 | 32.93578 | 10983 ft | 137 kts | 24° |
| 2026-04-24 00:03 | -24.95447 | 32.93890 | 11060 ft | 137 kts | 24° |
| 2026-04-24 00:03 | -24.94534 | 32.94205 | 11138 ft | 137 kts | 24° |
| 2026-04-24 00:03 | -24.93633 | 32.94516 | 11216 ft | 137 kts | 24° |
| 2026-04-24 00:04 | -24.92723 | 32.94830 | 11294 ft | 136 kts | 24° |
| 2026-04-24 00:04 | -24.91820 | 32.95142 | 11372 ft | 136 kts | 24° |
| 2026-04-24 00:04 | -24.90914 | 32.95455 | 11450 ft | 136 kts | 24° |
| 2026-04-24 00:04 | -24.90020 | 32.95763 | 11527 ft | 135 kts | 24° |
| 2026-04-24 00:05 | -24.89119 | 32.96074 | 11600 ft | 135 kts | 24° |
| 2026-04-24 00:05 | -24.88223 | 32.96383 | 11673 ft | 134 kts | 24° |
| 2026-04-24 00:05 | -24.87330 | 32.96691 | 11746 ft | 134 kts | 24° |
| 2026-04-24 00:05 | -24.86451 | 32.96994 | 11818 ft | 133 kts | 24° |
| 2026-04-24 00:06 | -24.85564 | 32.97300 | 11890 ft | 133 kts | 24° |
| 2026-04-24 00:06 | -24.84693 | 32.97600 | 11962 ft | 132 kts | 25° |
| 2026-04-24 00:06 | -24.83816 | 32.97902 | 12035 ft | 131 kts | 25° |
| 2026-04-24 00:06 | -24.82944 | 32.98203 | 12107 ft | 131 kts | 25° |
| 2026-04-24 00:07 | -24.82077 | 32.98502 | 12180 ft | 130 kts | 25° |
| 2026-04-24 00:07 | -24.81220 | 32.98797 | 12251 ft | 130 kts | 25° |
| 2026-04-24 00:07 | -24.80362 | 32.99092 | 12324 ft | 129 kts | 25° |
| 2026-04-24 00:07 | -24.79496 | 32.99391 | 12397 ft | 129 kts | 25° |
| 2026-04-24 00:08 | -24.78644 | 32.99684 | 12469 ft | 128 kts | 25° |
| 2026-04-24 00:08 | -24.77803 | 32.99973 | 12540 ft | 128 kts | 25° |
| 2026-04-24 00:08 | -24.76956 | 33.00265 | 12613 ft | 127 kts | 25° |
| 2026-04-24 00:08 | -24.76104 | 33.00558 | 12686 ft | 127 kts | 25° |
| 2026-04-24 00:09 | -24.75270 | 33.00845 | 12758 ft | 126 kts | 25° |
| 2026-04-24 00:09 | -24.74428 | 33.01135 | 12830 ft | 125 kts | 25° |
| 2026-04-24 00:09 | -24.73603 | 33.01419 | 12902 ft | 125 kts | 25° |
| 2026-04-24 00:09 | -24.72780 | 33.01702 | 12973 ft | 124 kts | 25° |
| 2026-04-24 00:10 | -24.71955 | 33.01986 | 13045 ft | 123 kts | 25° |
| 2026-04-24 00:10 | -24.71135 | 33.02268 | 13117 ft | 123 kts | 25° |
| 2026-04-24 00:10 | -24.70330 | 33.02545 | 13189 ft | 122 kts | 25° |
| 2026-04-24 00:10 | -24.69519 | 33.02824 | 13261 ft | 121 kts | 26° |
| 2026-04-24 00:11 | -24.68722 | 33.03098 | 13332 ft | 120 kts | 26° |
| 2026-04-24 00:11 | -24.67920 | 33.03374 | 13404 ft | 119 kts | 26° |
| 2026-04-24 00:11 | -24.67140 | 33.03642 | 13475 ft | 118 kts | 26° |
| 2026-04-24 00:11 | -24.66355 | 33.03912 | 13546 ft | 117 kts | 26° |
| 2026-04-24 00:12 | -24.65588 | 33.04175 | 13616 ft | 116 kts | 26° |
| 2026-04-24 00:12 | -24.64823 | 33.04438 | 13687 ft | 114 kts | 26° |
| 2026-04-24 00:12 | -24.64071 | 33.04696 | 13757 ft | 113 kts | 26° |
| 2026-04-24 00:12 | -24.63323 | 33.04953 | 13826 ft | 111 kts | 27° |
| 2026-04-24 00:13 | -24.62596 | 33.05203 | 13895 ft | 109 kts | 27° |
| 2026-04-24 00:13 | -24.61873 | 33.05451 | 13958 ft | 107 kts | 27° |
| 2026-04-24 00:13 | -24.61217 | 33.05494 | 12978 ft | 171 kts | 168° |
| 2026-04-24 00:13 | -24.61739 | 33.05217 | 13100 ft | 123 kts | 308° |
| 2026-04-24 00:14 | -24.61780 | 33.05642 | 12083 ft | 131 kts | 211° |
| 2026-04-24 00:14 | -24.61363 | 33.05441 | 11168 ft | 148 kts | 102° |
| 2026-04-24 00:14 | -24.61462 | 33.05162 | 10353 ft | 187 kts | 357° |
| 2026-04-24 00:14 | -24.61402 | 33.05459 | 10065 ft | 167 kts | 244° |
| 2026-04-24 00:15 | -24.60930 | 33.05112 | 9960 ft | 135 kts | 121° |
| 2026-04-24 00:15 | -24.61495 | 33.05170 | 10310 ft | 45 kts | 84° |
| 2026-04-24 00:15 | -24.61625 | 33.04873 | 8636 ft | 161 kts | 161° |
| 2026-04-24 00:15 | -24.61375 | 33.04735 | 8282 ft | 93 kts | 171° |
| 2026-04-24 00:16 | -24.61056 | 33.04552 | 7304 ft | 157 kts | 305° |
| 2026-04-24 00:16 | -24.60943 | 33.04470 | 6583 ft | 186 kts | 34° |
| 2026-04-24 00:16 | -24.60689 | 33.04628 | 7636 ft | 70 kts | 294° |
| 2026-04-24 00:16 | -24.60252 | 33.04055 | 7095 ft | 95 kts | 217° |
| 2026-04-24 00:17 | -24.59868 | 33.04000 | 5766 ft | 152 kts | 246° |
| 2026-04-24 00:17 | -24.59684 | 33.03885 | 4420 ft | 162 kts | 230° |
| 2026-04-24 00:17 | -24.59616 | 33.03859 | 3000 ft | 169 kts | 198° |
| 2026-04-24 00:17 | -24.59724 | 33.03934 | 1316 ft | 188 kts | 118° |
| 2026-04-24 00:18 | -24.59606 | 33.04202 | 350 ft | 182 kts | 83° |